Time;durP1;ratioP1;P1;durP2;ratioP2;P2;SDS_P1;SDS_P2;PMS_P1;PMS_P2;Temp;Humidity;BMP_temperature;BMP_pressure;BME280_temperature;BME280_humidity;BME280_pressure;Samples;Min_cycle;Max_cycle;Signal;HPM_P1;HPM_P2
2022/07/24 00:02:20;;;;;;;9.63;8.93;;;;;;;15.36;61.81;101014.56;5125889;28;20035;-81
2022/07/24 00:04:45;;;;;;;9.38;8.68;;;;;;;15.36;61.90;101011.91;5123754;28;20055;-81
2022/07/24 00:07:11;;;;;;;9.48;8.88;;;;;;;15.31;62.43;101011.97;5124403;28;20035;-81
2022/07/24 00:09:36;;;;;;;9.70;9.00;;;;;;;15.28;62.16;101014.69;5124643;27;20095;-81
2022/07/24 00:12:02;;;;;;;9.60;8.90;;;;;;;15.22;61.92;101020.09;5127468;27;20046;-81
2022/07/24 00:14:27;;;;;;;8.95;8.25;;;;;;;15.10;63.18;101014.09;5130806;27;20035;-81
2022/07/24 00:16:52;;;;;;;8.93;8.10;;;;;;;15.00;63.78;101015.16;5127405;27;20035;-81
2022/07/24 00:19:18;;;;;;;9.30;8.70;;;;;;;14.95;63.80;101024.09;5111415;27;20027;-81
2022/07/24 00:21:43;;;;;;;8.52;7.93;;;;;;;14.88;64.90;101016.25;5127360;27;20441;-81
2022/07/24 00:24:08;;;;;;;8.60;8.00;;;;;;;14.81;65.05;101022.56;5110233;27;20385;-81
2022/07/24 00:26:34;;;;;;;8.60;7.85;;;;;;;14.74;66.42;101027.97;5129267;27;20558;-81
2022/07/24 00:29:00;;;;;;;8.27;7.57;;;;;;;14.71;65.71;101018.28;5127404;27;20043;-81
2022/07/24 00:31:25;;;;;;;8.60;7.95;;;;;;;14.66;66.63;101025.44;5111329;27;20035;-81
2022/07/24 00:33:50;;;;;;;8.32;7.72;;;;;;;14.59;67.29;101026.44;5126709;27;20081;-81
2022/07/24 00:36:16;;;;;;;10.32;9.52;;;;;;;14.50;69.56;101024.75;5129061;27;20409;-81
2022/07/24 00:38:41;;;;;;;12.52;8.60;;;;;;;14.43;68.13;101025.72;5109568;27;20504;-81
2022/07/24 00:41:06;;;;;;;8.85;8.25;;;;;;;14.42;68.93;101030.19;5127317;27;20125;-81
2022/07/24 00:43:32;;;;;;;8.55;7.90;;;;;;;14.42;69.51;101032.84;5128889;27;20114;-81
2022/07/24 00:45:57;;;;;;;8.65;7.80;;;;;;;14.37;69.94;101032.00;5108794;28;20078;-81
2022/07/24 00:48:23;;;;;;;8.55;7.72;;;;;;;14.33;69.55;101032.06;5130202;27;20035;-81
2022/07/24 00:50:48;;;;;;;8.95;8.25;;;;;;;14.23;70.21;101036.66;5126687;27;20046;-81
2022/07/24 00:53:15;;;;;;;8.95;7.72;;;;;;;14.18;69.81;101046.44;5128195;27;20073;-81
2022/07/24 00:55:41;;;;;;;8.65;8.05;;;;;;;14.17;69.92;101036.72;5109593;27;20184;-81
2022/07/24 00:58:07;;;;;;;8.30;7.57;;;;;;;14.16;69.35;101040.28;5126896;27;20505;-81
2022/07/24 01:00:32;;;;;;;9.10;8.50;;;;;;;14.12;70.50;101036.78;5129720;27;20039;-81
2022/07/24 01:02:57;;;;;;;8.85;8.15;;;;;;;13.98;71.19;101034.28;5125450;27;20027;-81
2022/07/24 01:05:23;;;;;;;8.98;8.25;;;;;;;13.95;71.10;101034.31;5129704;27;20107;-81
2022/07/24 01:07:48;;;;;;;7.93;7.13;;;;;;;13.96;71.06;101036.09;5107528;27;20042;-81
2022/07/24 01:10:14;;;;;;;9.65;7.72;;;;;;;13.99;71.29;101041.38;5108982;27;20676;-81
2022/07/24 01:12:40;;;;;;;8.23;7.53;;;;;;;14.02;70.86;101038.66;5109457;27;20635;-81
2022/07/24 01:15:08;;;;;;;8.15;7.38;;;;;;;14.00;71.45;101044.91;5127177;27;20099;-81
2022/07/24 01:17:35;;;;;;;7.65;7.15;;;;;;;13.97;71.02;101034.31;5130279;27;20473;-81
2022/07/24 01:20:02;;;;;;;8.05;7.45;;;;;;;13.95;70.33;101036.97;5127484;27;20039;-81
2022/07/24 01:22:27;;;;;;;7.47;6.78;;;;;;;13.95;70.85;101036.09;5126392;27;20039;-81
2022/07/24 01:24:54;;;;;;;8.43;7.72;;;;;;;13.95;71.29;101039.63;5129215;27;20066;-81
2022/07/24 01:27:21;;;;;;;8.00;7.30;;;;;;;13.88;70.83;101037.94;5106590;28;20147;-81
2022/07/24 01:29:46;;;;;;;8.27;7.68;;;;;;;13.80;71.71;101043.34;5131028;27;20039;-82
2022/07/24 01:32:11;;;;;;;8.57;7.97;;;;;;;13.74;72.32;101042.53;5128723;27;20061;-81
2022/07/24 01:34:37;;;;;;;8.15;7.45;;;;;;;13.76;72.11;101046.06;5127347;27;20031;-81
2022/07/24 01:37:02;;;;;;;8.95;7.45;;;;;;;13.79;71.87;101049.56;5109329;27;20038;-81
2022/07/24 01:39:28;;;;;;;7.80;7.20;;;;;;;13.75;73.15;101050.50;5128472;27;20592;-81
2022/07/24 01:41:53;;;;;;;8.73;7.93;;;;;;;13.69;74.26;101049.66;5126311;27;20042;-81
2022/07/24 01:44:18;;;;;;;8.38;7.28;;;;;;;13.65;74.76;101048.84;5130028;27;20031;-81
2022/07/24 01:46:44;;;;;;;8.05;7.35;;;;;;;13.58;74.67;101048.00;5104917;27;20046;-81
2022/07/24 01:49:10;;;;;;;7.68;7.00;;;;;;;13.62;73.69;101054.13;5111072;27;20069;-81
2022/07/24 01:51:35;;;;;;;8.35;7.63;;;;;;;13.63;73.13;101057.69;5126940;27;20095;-81
2022/07/24 01:54:02;;;;;;;8.15;7.05;;;;;;;13.58;73.40;101053.31;5127850;27;20462;-81
2022/07/24 01:56:28;;;;;;;7.95;7.13;;;;;;;13.49;73.35;101053.41;5110690;27;20396;-81
2022/07/24 01:58:53;;;;;;;8.15;7.38;;;;;;;13.47;73.92;101055.19;5126228;27;20039;-81
2022/07/24 02:01:19;;;;;;;8.15;7.43;;;;;;;13.41;73.82;101064.97;5121390;27;20039;-81
2022/07/24 02:03:45;;;;;;;10.32;7.53;;;;;;;13.31;74.72;101069.50;5110510;27;20036;-81
2022/07/24 02:06:10;;;;;;;7.80;7.15;;;;;;;13.24;74.76;101067.75;5127621;27;20035;-81
2022/07/24 02:08:35;;;;;;;7.95;7.25;;;;;;;13.24;75.79;101067.75;5092630;27;20050;-81
2022/07/24 02:11:00;;;;;;;7.95;7.28;;;;;;;13.14;76.86;101066.94;5127011;27;20035;-81
2022/07/24 02:13:26;;;;;;;8.23;7.60;;;;;;;13.10;76.79;101074.03;5129193;27;20059;-81
2022/07/24 02:15:52;;;;;;;7.72;7.00;;;;;;;13.11;77.59;101077.56;5124307;27;20027;-81
2022/07/24 02:18:17;;;;;;;8.23;7.63;;;;;;;13.08;78.59;101086.41;5128541;27;20031;-81
2022/07/24 02:20:43;;;;;;;8.15;7.45;;;;;;;13.04;78.16;101076.72;5108908;27;20455;-81
2022/07/24 02:23:08;;;;;;;7.63;7.03;;;;;;;12.98;77.24;101082.06;5126545;27;20582;-81
2022/07/24 02:25:33;;;;;;;8.80;7.95;;;;;;;12.95;76.87;101082.09;5128803;27;20412;-81
2022/07/24 02:27:59;;;;;;;8.32;7.53;;;;;;;12.96;77.42;101089.16;5126254;27;20050;-81
2022/07/24 02:30:24;;;;;;;8.65;7.85;;;;;;;12.90;77.18;101095.38;5086938;28;20501;-81
2022/07/24 02:32:50;;;;;;;8.35;7.65;;;;;;;12.92;75.32;101092.72;5120096;27;20028;-81
2022/07/24 02:35:15;;;;;;;8.65;7.63;;;;;;;12.92;75.00;101092.72;5126998;27;20035;-81
2022/07/24 02:37:43;;;;;;;8.07;6.90;;;;;;;12.87;75.87;101092.75;5107441;27;20032;-81
2022/07/24 02:40:10;;;;;;;7.60;7.05;;;;;;;12.85;75.62;101093.66;5126486;27;20034;-81
2022/07/24 02:42:36;;;;;;;8.38;7.68;;;;;;;12.81;76.11;101091.91;5108397;27;20043;-81
2022/07/24 02:45:03;;;;;;;8.07;7.43;;;;;;;12.83;76.24;101098.06;5106909;28;20031;-81
2022/07/24 02:47:28;;;;;;;8.00;7.30;;;;;;;12.77;77.91;101100.78;5127861;27;20039;-81
2022/07/24 02:49:53;;;;;;;8.25;7.55;;;;;;;12.79;78.16;101096.34;5125734;27;20054;-81
2022/07/24 02:52:19;;;;;;;8.63;7.65;;;;;;;12.84;77.62;101097.19;5125225;27;20058;-81
2022/07/24 02:54:44;;;;;;;7.90;7.25;;;;;;;12.82;77.26;101096.31;5092656;27;20039;-81
2022/07/24 02:57:09;;;;;;;6.93;6.32;;;;;;;12.74;75.56;101101.66;5125410;27;20038;-81
2022/07/24 02:59:35;;;;;;;7.72;7.03;;;;;;;12.59;76.17;101102.63;5127828;27;20038;-81
2022/07/24 03:02:00;;;;;;;7.65;7.05;;;;;;;12.53;76.33;101102.66;5120551;27;20040;-81
2022/07/24 03:04:26;;;;;;;7.80;7.10;;;;;;;12.54;76.05;101101.75;5109106;27;20064;-81
2022/07/24 03:06:51;;;;;;;8.20;7.60;;;;;;;12.54;77.15;101107.06;5125585;27;20118;-81
2022/07/24 03:09:16;;;;;;;7.90;7.18;;;;;;;12.51;78.07;101112.38;5108161;27;20034;-81
2022/07/24 03:11:42;;;;;;;7.43;6.93;;;;;;;12.52;76.93;101105.31;5115013;27;20035;-81
2022/07/24 03:14:07;;;;;;;8.02;7.25;;;;;;;12.44;76.68;101105.34;5126277;27;20437;-81
2022/07/24 03:16:32;;;;;;;7.65;6.88;;;;;;;12.28;78.26;101104.53;5124707;27;20520;-81
2022/07/24 03:18:57;;;;;;;7.32;6.72;;;;;;;12.22;78.79;101109.84;5127946;27;20401;-81
2022/07/24 03:21:23;;;;;;;6.85;6.15;;;;;;;12.23;78.88;101109.84;5090698;27;20414;-81
2022/07/24 03:23:48;;;;;;;8.18;7.38;;;;;;;12.29;78.35;101106.31;5125049;27;20552;-81
2022/07/24 03:26:14;;;;;;;8.52;7.82;;;;;;;12.34;77.57;101103.63;5108753;27;20039;-81
2022/07/24 03:28:39;;;;;;;7.82;7.18;;;;;;;12.38;77.73;101105.38;5107061;28;20038;-81
2022/07/24 03:31:04;;;;;;;7.78;7.07;;;;;;;12.30;78.53;101107.19;5109399;27;20050;-81
2022/07/24 03:33:30;;;;;;;8.30;7.43;;;;;;;12.20;80.31;101107.19;5124375;27;20444;-81
2022/07/24 03:35:55;;;;;;;8.43;6.97;;;;;;;12.19;80.32;101112.53;5127068;27;20470;-81
2022/07/24 03:38:21;;;;;;;7.28;6.68;;;;;;;12.26;79.52;101101.91;5107760;27;20039;-81
2022/07/24 03:40:46;;;;;;;7.63;7.03;;;;;;;12.24;80.29;101108.97;5120194;27;20036;-81
2022/07/24 03:43:12;;;;;;;7.20;6.55;;;;;;;12.22;79.67;101104.56;5126734;27;20027;-81
2022/07/24 03:45:38;;;;;;;6.97;6.28;;;;;;;12.24;80.07;101103.69;5125023;28;20031;-81
2022/07/24 03:48:04;;;;;;;7.15;6.57;;;;;;;12.31;79.35;101103.63;5128012;27;20188;-81
2022/07/24 03:50:30;;;;;;;7.18;6.47;;;;;;;12.25;80.62;101105.41;5125983;27;20031;-81
2022/07/24 03:52:55;;;;;;;7.18;6.68;;;;;;;12.26;81.14;101111.59;5108636;28;20401;-81
2022/07/24 03:55:20;;;;;;;7.75;6.97;;;;;;;12.32;81.26;101105.41;5126432;27;20382;-81
2022/07/24 03:57:46;;;;;;;11.13;7.25;;;;;;;12.44;79.85;101110.63;5126085;28;20040;-81
2022/07/24 04:00:12;;;;;;;7.45;6.80;;;;;;;12.51;78.31;101109.72;5127955;28;20042;-81
2022/07/24 04:02:40;;;;;;;7.68;6.95;;;;;;;12.60;78.44;101116.72;5101985;28;20035;-81
2022/07/24 04:05:08;;;;;;;7.57;6.97;;;;;;;12.69;78.00;101114.06;5109121;28;20368;-81
2022/07/24 04:07:34;;;;;;;7.40;6.80;;;;;;;12.76;77.36;101123.72;5108124;28;20420;-81
2022/07/24 04:10:00;;;;;;;7.15;6.55;;;;;;;12.78;78.27;101121.94;5125996;28;20039;-81
2022/07/24 04:12:25;;;;;;;7.38;6.85;;;;;;;12.83;77.98;101116.63;5109636;28;20043;-81
2022/07/24 04:14:50;;;;;;;7.03;6.47;;;;;;;12.91;78.35;101123.63;5125564;28;20033;-81
2022/07/24 04:17:16;;;;;;;7.55;6.93;;;;;;;13.01;77.26;101132.41;5074155;28;20052;-81
2022/07/24 04:19:41;;;;;;;7.70;7.10;;;;;;;13.08;76.94;101125.28;5109158;28;20042;-81
2022/07/24 04:22:06;;;;;;;7.53;6.85;;;;;;;13.16;77.06;101124.34;5125340;28;20047;-81
2022/07/24 04:24:32;;;;;;;8.18;7.22;;;;;;;13.11;77.13;101126.16;5126624;28;20031;-81
2022/07/24 04:26:57;;;;;;;7.22;6.43;;;;;;;13.16;77.89;101128.78;5127562;28;20050;-81
2022/07/24 04:29:22;;;;;;;7.60;7.00;;;;;;;13.29;77.98;101117.22;5125605;28;20409;-81
2022/07/24 04:31:48;;;;;;;8.00;7.30;;;;;;;13.34;78.37;101120.72;5124295;28;20031;-81
2022/07/24 04:34:13;;;;;;;8.50;7.82;;;;;;;13.52;78.23;101126.75;5112176;28;20035;-81
2022/07/24 04:36:38;;;;;;;8.63;7.82;;;;;;;13.72;77.14;101126.56;5126238;28;20043;-81
2022/07/24 04:39:04;;;;;;;7.88;7.28;;;;;;;13.88;76.68;101125.50;5103439;28;20110;-81
2022/07/24 04:41:29;;;;;;;8.73;8.02;;;;;;;14.03;76.19;101124.47;5107883;28;20043;-81
2022/07/24 04:43:54;;;;;;;8.55;7.82;;;;;;;14.15;76.73;101123.47;5109507;28;20031;-81
2022/07/24 04:46:20;;;;;;;8.57;7.88;;;;;;;14.24;75.92;101126.00;5107287;28;20036;-81
2022/07/24 04:48:45;;;;;;;9.13;8.38;;;;;;;14.36;75.57;101128.53;5110667;28;20039;-81
2022/07/24 04:51:11;;;;;;;8.90;8.10;;;;;;;14.47;75.87;101133.69;5126101;28;20047;-81
2022/07/24 04:53:36;;;;;;;9.48;8.68;;;;;;;14.58;75.46;101128.28;5127781;28;20027;-81
2022/07/24 04:56:02;;;;;;;8.50;7.70;;;;;;;14.73;74.50;101132.53;5127524;27;20035;-81
2022/07/24 04:58:27;;;;;;;9.02;8.20;;;;;;;14.85;74.48;101133.19;5110847;27;20085;-81
2022/07/24 05:00:53;;;;;;;8.27;7.47;;;;;;;14.98;73.61;101130.38;5114267;27;20039;-81
2022/07/24 05:03:18;;;;;;;8.45;7.65;;;;;;;15.06;73.47;101126.72;5129961;27;20114;-81
2022/07/24 05:05:43;;;;;;;7.53;6.82;;;;;;;15.15;73.05;101115.06;5129590;27;20043;-81
2022/07/24 05:08:09;;;;;;;8.48;7.40;;;;;;;15.28;72.42;101123.72;5114698;27;20037;-81
2022/07/24 05:10:34;;;;;;;9.02;6.32;;;;;;;15.41;71.84;101127.06;5113473;27;20092;-82
2022/07/24 05:12:59;;;;;;;7.60;6.85;;;;;;;15.53;71.00;101129.50;5112823;27;20600;-81
2022/07/24 05:15:25;;;;;;;6.75;6.15;;;;;;;15.67;70.30;101119.50;5132164;27;20474;-81
2022/07/24 05:17:50;;;;;;;7.88;6.35;;;;;;;15.77;69.91;101126.44;5128265;27;20562;-81
2022/07/24 05:20:15;;;;;;;6.55;5.95;;;;;;;15.86;68.50;101108.56;5091911;27;20070;-81
2022/07/24 05:22:41;;;;;;;6.88;6.20;;;;;;;15.92;69.05;101119.06;5131870;27;20039;-81
2022/07/24 05:25:07;;;;;;;6.75;5.97;;;;;;;16.07;68.58;101112.59;5130518;27;20031;-82
2022/07/24 05:27:32;;;;;;;7.10;6.50;;;;;;;16.19;67.50;101107.91;5132032;27;20045;-81
2022/07/24 05:29:57;;;;;;;7.13;6.45;;;;;;;16.29;67.46;101113.03;5131964;27;20609;-81
2022/07/24 05:32:23;;;;;;;6.78;6.28;;;;;;;16.42;66.83;101111.84;5128782;27;20047;-81
2022/07/24 05:34:48;;;;;;;6.40;5.90;;;;;;;16.54;66.37;101108.94;5091636;28;20360;-81
2022/07/24 05:37:13;;;;;;;7.55;6.90;;;;;;;16.61;66.14;101115.91;5132120;27;20393;-81
2022/07/24 05:39:39;;;;;;;7.47;6.65;;;;;;;16.62;64.37;101111.44;5112252;27;20481;-81
2022/07/24 05:42:04;;;;;;;6.97;6.38;;;;;;;16.72;64.39;101110.31;5131301;27;20536;-81
2022/07/24 05:44:29;;;;;;;7.55;6.88;;;;;;;16.80;63.52;101112.84;5104029;28;20498;-82
2022/07/24 05:46:55;;;;;;;7.40;6.80;;;;;;;16.89;63.68;101109.97;5129744;27;20047;-81
2022/07/24 05:49:20;;;;;;;7.93;7.15;;;;;;;16.97;63.08;101113.31;5126845;27;20035;-81
2022/07/24 05:51:45;;;;;;;6.82;6.20;;;;;;;17.07;63.13;101106.00;5130000;27;20080;-81
2022/07/24 05:54:11;;;;;;;7.18;6.57;;;;;;;17.15;62.52;101105.81;5127640;27;20035;-81
2022/07/24 05:56:36;;;;;;;7.10;6.45;;;;;;;17.27;62.61;101113.53;5111246;27;20122;-80
2022/07/24 05:59:01;;;;;;;7.30;6.70;;;;;;;17.40;62.65;101108.78;5128570;27;20067;-81
2022/07/24 06:01:27;;;;;;;9.32;6.45;;;;;;;17.55;62.21;101110.16;5127560;27;20090;-81
2022/07/24 06:03:52;;;;;;;7.22;6.53;;;;;;;17.67;61.88;101113.38;5090915;27;20039;-81
2022/07/24 06:06:17;;;;;;;6.53;6.03;;;;;;;17.73;61.81;101115.00;5108367;28;20047;-81
2022/07/24 06:08:43;;;;;;;6.28;5.28;;;;;;;17.85;61.25;101120.06;5129581;27;20039;-81
2022/07/24 06:11:08;;;;;;;6.45;5.88;;;;;;;17.97;61.50;101113.50;5108607;27;20039;-81
2022/07/24 06:13:33;;;;;;;5.88;5.38;;;;;;;18.05;61.17;101115.97;5128205;27;20063;-82
2022/07/24 06:15:59;;;;;;;5.80;5.28;;;;;;;18.13;61.06;101120.19;5094011;27;20049;-81
2022/07/24 06:18:24;;;;;;;5.60;5.18;;;;;;;18.18;60.19;101109.34;5127263;27;20040;-81
2022/07/24 06:20:49;;;;;;;5.55;4.97;;;;;;;18.28;59.59;101117.97;5129472;27;20054;-82
2022/07/24 06:23:15;;;;;;;7.43;6.28;;;;;;;18.37;59.25;101118.59;5119794;27;20398;-82
2022/07/24 06:25:40;;;;;;;6.25;5.70;;;;;;;18.47;58.81;101121.00;5126253;27;20059;-82
2022/07/24 06:28:05;;;;;;;5.90;5.40;;;;;;;18.52;58.28;101127.97;5129011;27;20566;-82
2022/07/24 06:30:32;;;;;;;5.57;5.07;;;;;;;18.55;58.01;101116.31;5108920;27;20114;-82
2022/07/24 06:32:58;;;;;;;5.90;5.40;;;;;;;18.65;57.75;101112.41;5106470;27;20047;-82
2022/07/24 06:35:26;;;;;;;6.53;5.43;;;;;;;18.78;57.62;101112.97;5128934;27;20496;-82
2022/07/24 06:37:52;;;;;;;7.85;5.45;;;;;;;18.83;56.78;101119.91;5107553;27;20486;-82
2022/07/24 06:40:19;;;;;;;5.43;5.03;;;;;;;18.92;56.45;101109.88;5128822;27;20038;-81
2022/07/24 06:42:46;;;;;;;6.05;5.65;;;;;;;19.03;56.29;101107.72;5126635;27;20039;-82
2022/07/24 06:45:11;;;;;;;5.25;4.85;;;;;;;19.14;55.99;101110.06;5127671;27;20034;-81
2022/07/24 06:47:37;;;;;;;6.45;5.93;;;;;;;19.24;55.37;101104.34;5128456;27;20473;-81
2022/07/24 06:50:03;;;;;;;6.05;5.45;;;;;;;19.23;54.74;101113.31;5125362;27;20548;-81
2022/07/24 06:52:28;;;;;;;6.40;5.90;;;;;;;19.32;55.26;101112.13;5120198;27;20034;-82
2022/07/24 06:54:54;;;;;;;6.15;5.65;;;;;;;19.34;54.15;101112.94;5127888;27;20043;-81
2022/07/24 06:57:19;;;;;;;6.45;5.85;;;;;;;19.46;54.62;101114.31;5092393;27;20031;-82
2022/07/24 06:59:45;;;;;;;5.93;5.43;;;;;;;19.54;54.52;101117.63;5126764;27;20031;-82
2022/07/24 07:02:10;;;;;;;6.05;5.55;;;;;;;19.67;54.18;101104.72;5109171;27;20027;-82
2022/07/24 07:04:35;;;;;;;5.70;5.18;;;;;;;19.81;54.47;101117.66;5125740;27;20043;-81
2022/07/24 07:07:02;;;;;;;6.47;5.97;;;;;;;19.89;53.73;101110.22;5091630;28;20543;-82
2022/07/24 07:09:27;;;;;;;7.00;6.38;;;;;;;19.99;53.29;101111.63;5128240;27;20531;-82
2022/07/24 07:11:52;;;;;;;5.97;5.57;;;;;;;20.09;53.34;101104.97;5091877;27;20035;-81
2022/07/24 07:14:18;;;;;;;6.10;5.70;;;;;;;20.16;52.14;101099.41;5108934;27;20043;-81
2022/07/24 07:16:43;;;;;;;7.88;6.28;;;;;;;20.19;51.37;101101.97;5127338;27;20035;-81
2022/07/24 07:19:09;;;;;;;5.72;5.32;;;;;;;20.28;51.21;101109.69;5125470;27;20126;-82
2022/07/24 07:21:36;;;;;;;7.20;6.60;;;;;;;20.38;50.69;101105.72;5127231;27;20114;-82
2022/07/24 07:24:01;;;;;;;6.40;6.00;;;;;;;20.48;50.49;101099.06;5091474;27;20111;-82
2022/07/24 07:26:27;;;;;;;6.28;5.82;;;;;;;20.56;50.32;101101.50;5109228;28;20479;-82
2022/07/24 07:28:52;;;;;;;6.93;6.43;;;;;;;20.64;49.63;101087.78;5076030;27;20084;-82
2022/07/24 07:31:18;;;;;;;6.85;6.35;;;;;;;20.72;49.27;101091.03;5125649;27;20078;-82
2022/07/24 07:33:43;;;;;;;7.60;6.88;;;;;;;20.77;48.75;101100.66;5124370;27;20046;-82
2022/07/24 07:36:08;;;;;;;7.88;7.38;;;;;;;20.78;47.11;101090.81;5124730;27;20046;-82
2022/07/24 07:38:37;;;;;;;7.85;7.25;;;;;;;20.93;48.38;101100.94;5121029;27;20031;-82
2022/07/24 07:41:03;;;;;;;7.90;7.20;;;;;;;21.01;48.43;101101.50;5108517;27;20035;-82
2022/07/24 07:43:28;;;;;;;6.93;6.53;;;;;;;21.18;48.07;101094.56;5107816;28;20040;-82
2022/07/24 07:45:53;;;;;;;7.18;6.68;;;;;;;21.27;47.98;101104.91;5090609;27;20047;-82
2022/07/24 07:48:18;;;;;;;7.82;7.10;;;;;;;21.36;47.78;101101.84;5127634;27;20035;-82
2022/07/24 07:50:44;;;;;;;8.35;7.75;;;;;;;21.39;47.02;101099.06;5124995;27;20043;-81
2022/07/24 07:53:09;;;;;;;8.70;8.00;;;;;;;21.52;46.45;101103.91;5122202;27;20036;-82
2022/07/24 07:55:34;;;;;;;8.38;7.88;;;;;;;21.61;46.29;101109.78;5108786;27;20034;-82
2022/07/24 07:58:00;;;;;;;8.45;7.78;;;;;;;21.62;46.11;101099.91;5125749;27;20039;-82
2022/07/24 08:00:26;;;;;;;8.77;8.27;;;;;;;21.70;46.18;101097.75;5126070;27;20043;-82
2022/07/24 08:02:51;;;;;;;8.95;8.45;;;;;;;21.77;45.06;101104.63;5108369;28;20035;-83
2022/07/24 08:05:16;;;;;;;9.50;8.80;;;;;;;21.78;44.96;101106.34;5089598;28;20050;-83
2022/07/24 08:07:42;;;;;;;9.35;8.52;;;;;;;21.83;45.00;101107.03;5128309;28;20039;-82
2022/07/24 08:10:07;;;;;;;9.85;9.25;;;;;;;21.83;44.37;101115.09;5106278;28;20040;-83
2022/07/24 08:12:33;;;;;;;8.98;8.45;;;;;;;21.88;44.14;101106.81;5126788;28;20027;-82
2022/07/24 08:14:58;;;;;;;9.70;9.10;;;;;;;21.91;43.83;101095.94;5095195;28;20046;-82
2022/07/24 08:17:23;;;;;;;9.63;9.02;;;;;;;22.06;44.48;101097.03;5126497;28;20083;-82
2022/07/24 08:19:49;;;;;;;10.25;9.45;;;;;;;22.16;43.70;101098.38;5127301;28;20113;-83
2022/07/24 08:22:14;;;;;;;8.82;8.18;;;;;;;22.21;43.40;101093.69;5105464;28;20514;-82
2022/07/24 08:24:40;;;;;;;9.88;9.27;;;;;;;22.24;41.77;101088.22;5086298;28;20551;-82
2022/07/24 08:27:05;;;;;;;8.82;8.18;;;;;;;22.19;42.89;101090.22;5109070;28;20473;-82
2022/07/24 08:29:31;;;;;;;10.15;9.48;;;;;;;22.34;42.96;101090.47;5122888;28;20080;-82
2022/07/24 08:31:57;;;;;;;9.80;9.18;;;;;;;22.49;42.18;101097.81;5125525;27;20529;-83
2022/07/24 08:34:23;;;;;;;9.32;8.63;;;;;;;22.53;42.15;101089.53;5130873;27;20043;-83
2022/07/24 08:36:48;;;;;;;9.93;9.32;;;;;;;22.64;41.82;101086.34;5127724;27;20054;-82
2022/07/24 08:39:15;;;;;;;8.65;8.15;;;;;;;22.72;41.11;101084.16;5131495;27;20041;-82
2022/07/24 08:41:41;;;;;;;8.57;7.95;;;;;;;22.70;41.18;101079.78;5076875;27;20040;-82
2022/07/24 08:44:06;;;;;;;8.82;8.32;;;;;;;22.76;41.96;101080.34;5129627;27;20031;-83
2022/07/24 08:46:32;;;;;;;9.20;8.43;;;;;;;22.87;40.76;101081.66;5129446;27;20111;-83
2022/07/24 08:48:58;;;;;;;8.25;7.65;;;;;;;22.90;39.73;101074.31;5128514;27;20032;-83
2022/07/24 08:51:31;;;;;;;8.27;7.78;;;;;;;23.04;39.87;101079.03;5130421;27;20098;-83
2022/07/24 08:53:56;;;;;;;8.98;8.48;;;;;;;23.20;40.29;101071.06;5125148;27;20027;-83
2022/07/24 08:56:22;;;;;;;8.90;8.30;;;;;;;23.25;39.73;101071.72;5129404;27;20035;-82
2022/07/24 08:58:47;;;;;;;8.40;7.90;;;;;;;23.29;38.44;101070.63;5129764;27;20122;-82
2022/07/24 09:01:13;;;;;;;8.88;8.27;;;;;;;23.35;39.35;101069.44;5127303;27;20549;-82
2022/07/24 09:03:44;;;;;;;8.75;8.25;;;;;;;23.46;38.40;101061.66;5086391;28;20073;-83
2022/07/24 09:06:10;;;;;;;9.43;8.93;;;;;;;23.51;37.63;101062.31;5112042;27;20039;-83
2022/07/24 09:08:55;;;;;;;9.13;8.43;;;;;;;23.58;37.87;101063.75;5110582;27;20039;-83
2022/07/24 09:11:21;;;;;;;8.40;7.78;;;;;;;23.61;38.52;101063.56;5106653;27;20047;-83
2022/07/24 09:16:34;;;;;;;8.55;7.82;;;;;;;23.90;35.69;101060.34;5107637;27;20038;-83
2022/07/24 09:19:02;;;;;;;8.13;7.63;;;;;;;23.96;36.08;101063.56;5128572;27;20114;-82
2022/07/24 09:21:32;;;;;;;8.05;7.47;;;;;;;24.03;35.77;101054.19;5129815;27;20163;-82
2022/07/24 09:24:02;;;;;;;8.23;7.72;;;;;;;24.12;36.40;101054.63;5123128;27;20097;-83
2022/07/24 09:26:46;;;;;;;7.93;7.43;;;;;;;24.25;34.95;101053.00;5129167;27;20127;-82
2022/07/24 09:29:12;;;;;;;8.27;7.78;;;;;;;24.29;35.23;101054.59;5124350;27;20059;-83
2022/07/24 09:31:53;;;;;;;8.63;8.02;;;;;;;24.30;35.99;101048.25;5109745;27;20078;-82
2022/07/24 09:34:18;;;;;;;8.65;7.95;;;;;;;24.46;35.81;101050.97;5088946;27;20040;-82
2022/07/24 09:37:02;;;;;;;7.35;6.85;;;;;;;24.62;34.26;101045.59;5110662;27;20042;-83
2022/07/24 09:39:32;;;;;;;8.68;8.18;;;;;;;24.75;34.78;101051.16;5123040;27;20449;-82
2022/07/24 09:41:58;;;;;;;7.57;7.03;;;;;;;24.81;34.71;101058.91;5109944;27;20034;-83
2022/07/24 09:44:25;;;;;;;8.32;7.82;;;;;;;24.69;34.14;101047.84;5127671;27;20404;-83
2022/07/24 09:46:57;;;;;;;7.65;7.15;;;;;;;24.78;34.21;101051.84;5108566;28;20043;-83
2022/07/24 09:49:24;;;;;;;8.13;7.35;;;;;;;24.75;34.53;101051.16;5122071;27;20050;-83
2022/07/24 09:52:04;;;;;;;7.68;7.18;;;;;;;24.78;34.30;101049.16;5126859;27;20043;-83
2022/07/24 09:54:31;;;;;;;7.30;6.90;;;;;;;24.91;34.48;101039.38;5125789;27;20050;-82
2022/07/24 09:57:14;;;;;;;7.72;7.15;;;;;;;25.12;34.12;101049.91;5106551;27;20036;-82
2022/07/24 09:59:42;;;;;;;8.15;7.65;;;;;;;25.21;33.33;101041.28;5129198;27;20050;-82
2022/07/24 10:02:12;;;;;;;8.15;7.55;;;;;;;25.31;33.17;101039.78;5125436;27;20040;-82
2022/07/24 10:04:37;;;;;;;7.25;6.80;;;;;;;25.43;33.71;101037.31;5128123;27;20036;-83
2022/07/24 10:07:05;;;;;;;8.15;7.65;;;;;;;25.61;33.92;101036.19;5126868;27;20093;-82
2022/07/24 10:09:33;;;;;;;7.15;6.72;;;;;;;25.72;32.76;101044.50;5111184;27;20581;-82
2022/07/24 10:11:58;;;;;;;7.10;6.60;;;;;;;25.83;32.95;101034.84;5126195;27;20051;-82
2022/07/24 10:14:24;;;;;;;7.15;6.75;;;;;;;25.73;32.59;101030.03;5128178;27;20047;-82
2022/07/24 10:17:04;;;;;;;6.78;6.38;;;;;;;25.87;32.95;101037.31;5127612;27;20038;-82
2022/07/24 10:19:38;;;;;;;8.15;7.53;;;;;;;26.24;32.96;101035.84;5122814;27;20070;-82
2022/07/24 10:22:09;;;;;;;7.18;6.43;;;;;;;26.27;32.66;101023.09;5125692;27;20039;-82
2022/07/24 10:24:53;;;;;;;6.95;6.55;;;;;;;26.35;32.54;101027.06;5129198;27;20027;-82
2022/07/24 10:27:33;;;;;;;6.78;6.25;;;;;;;26.42;32.33;101024.84;5128920;27;20038;-81
2022/07/24 10:30:10;;;;;;;6.97;6.25;;;;;;;26.70;32.15;101017.63;5097399;27;20500;-83
2022/07/24 10:32:37;;;;;;;7.63;6.25;;;;;;;26.82;32.33;101019.53;5089632;27;20091;-83
2022/07/24 10:35:21;;;;;;;7.15;6.68;;;;;;;26.86;31.69;101015.66;5092358;27;20122;-82
2022/07/24 10:38:09;;;;;;;6.88;6.40;;;;;;;26.87;31.68;101015.53;5091179;27;20517;-82
2022/07/24 10:40:45;;;;;;;6.72;6.32;;;;;;;27.03;31.88;101022.63;5090830;27;20128;-83
2022/07/24 10:43:16;;;;;;;7.05;6.55;;;;;;;26.98;31.78;101013.97;5125532;27;20477;-83
2022/07/24 10:45:48;;;;;;;7.25;6.75;;;;;;;26.99;30.72;101016.56;5128489;27;20043;-82
2022/07/24 10:48:19;;;;;;;;;;;;;;;26.96;31.16;101018.59;5123778;27;20078;-82
2022/07/24 10:50:56;;;;;;;7.13;6.63;;;;;;;26.92;30.25;101025.22;5107395;27;19920;-82
2022/07/24 10:53:22;;;;;;;7.68;7.07;;;;;;;27.00;31.11;101017.44;5087456;27;20055;-82
2022/07/24 10:55:47;;;;;;;7.10;6.65;;;;;;;27.34;31.05;101009.75;5123332;27;20026;-82
2022/07/24 10:58:15;;;;;;;7.07;6.68;;;;;;;27.43;30.10;101004.56;5108598;27;20044;-82
2022/07/24 11:00:45;;;;;;;7.30;6.63;;;;;;;27.15;30.74;101000.16;5107251;27;20043;-82
2022/07/24 11:03:21;;;;;;;6.63;6.22;;;;;;;27.37;30.21;100990.56;5123604;27;20067;-83
2022/07/24 11:06:05;;;;;;;5.78;5.38;;;;;;;27.36;30.22;100992.41;5107655;27;20042;-83
2022/07/24 11:08:36;;;;;;;7.53;6.82;;;;;;;27.43;31.04;100999.16;5123232;27;20087;-83
2022/07/24 11:11:12;;;;;;;6.90;6.40;;;;;;;27.71;30.68;100992.63;5106505;28;20032;-83
2022/07/24 11:13:38;;;;;;;6.90;6.45;;;;;;;27.87;30.42;100987.03;5104288;27;20031;-83
2022/07/24 11:16:15;;;;;;;6.95;6.45;;;;;;;27.72;29.34;100988.09;5091312;28;20046;-83
2022/07/24 11:18:49;;;;;;;7.65;7.10;;;;;;;27.64;29.63;100980.50;5085949;27;20101;-83
2022/07/24 11:21:29;;;;;;;7.32;6.82;;;;;;;27.63;29.59;100980.59;5107643;28;20035;-82
2022/07/24 11:24:13;;;;;;;7.03;6.53;;;;;;;27.66;29.59;100980.38;5086499;27;20043;-82
2022/07/24 11:26:40;;;;;;;8.18;7.47;;;;;;;27.66;29.99;100966.84;5124385;27;20032;-82